Acme, WA (98220)

2:48 AM PST on February 12, 2016 (GMT -0800)
Sudden Valley | | Change Station
CLOSE
Current Station
Personal Weather Station
Location: Bellingham, WA
Elevation: 663 ft
Nearby Weather Stations

Elev 663 ft 48.71 °N, 122.32 °W | Updated 19 seconds ago

Rain
Rain
49.5 °F
Feels Like 48 °F
N
4.3
Wind Variable Wind from SE
Gusts 7.4 mph

Today
High -- | Low -- °F
--% Chance of Precip.
Yesterday
High -- | Low -- °F
Precip. -- in
Pressure 30.05 in
Visibility 5.0 miles
Clouds Few 800 ft
Overcast 1800 ft
Windchill 48 °F
Dew Point 49 °F
Humidity 99%
Rainfall 0.17 in
Snow Depth Not available.
7:22 AM 5:24 PM
Waxing Crescent, 19% visible
SPECI KBLI 121017Z AUTO 00000KT 5SM RA BR FEW008 OVC018 09/08 A3005 RMK AO2 P0004 T00890078
Pressure 30.05 in
Visibility 5.0 miles
Clouds Few 800 ft
Overcast 1800 ft
Windchill 48 °F
Dew Point 49 °F
Humidity 99%
Rainfall 0.17 in
Snow Depth Not available.
7:22 AM 5:24 PM
Waxing Crescent, 19% visible
SPECI KBLI 121017Z AUTO 00000KT 5SM RA BR FEW008 OVC018 09/08 A3005 RMK AO2 P0004 T00890078

10-Day Weather Forecast

Almanac

Astronomy

Feb. 12, 2016 Rise Set
Actual Time
Civil Twilight
Nautical Twilight
Astronomical Twilight
Moon
Length of Visible Light
Length of Day
Tomorrow will be .
, % of the Moon is Illuminated

Today's Extremes

State Highs State Lows

Community

WunderPhotos

Upload Photos

1,892,289 photos uploaded!

WunderBlog® & News

Nearby

Air Quality

  Air Quality AQ Index Pollutant
Not available.

Snow Depth

Station Depth Elevation

Earthquake Activity

City Distance Mag. Time & Date
Minimum magnitude displayed is 2.5.

Coastal Water Temperatures

Place Temperature

Stations

Nearby Weather Stations

Station Location Temp. Windchill Dew Point Humidity Wind Precip. Elev Updated Type
                   

Watches & Warnings

There are currently no watches in effect.